Time;durP1;ratioP1;P1;durP2;ratioP2;P2;SDS_P1;SDS_P2;PMS_P1;PMS_P2;Temp;Humidity;BMP_temperature;BMP_pressure;BME280_temperature;BME280_humidity;BME280_pressure;Samples;Min_cycle;Max_cycle;Signal;HPM_P1;HPM_P2
2021/03/17 00:02:20;;;;;;;4.70;2.37;;;;;;;3.19;75.42;101401.56;4972080;28;20295;-65
2021/03/17 00:04:47;;;;;;;7.80;2.33;;;;;;;3.19;75.17;101397.19;4964883;28;20200;-61
2021/03/17 00:07:13;;;;;;;4.90;1.50;;;;;;;3.19;74.97;101399.81;4970979;28;20389;-65
2021/03/17 00:09:39;;;;;;;4.90;1.83;;;;;;;3.18;75.26;101405.97;4970788;28;20667;-64
2021/03/17 00:12:06;;;;;;;7.20;1.90;;;;;;;3.17;75.32;101412.13;4971684;28;20287;-63
2021/03/17 00:14:32;;;;;;;9.80;1.90;;;;;;;3.17;75.45;101408.63;4969950;28;20228;-63
2021/03/17 00:16:58;;;;;;;5.63;1.83;;;;;;;3.18;74.98;101423.53;4971614;28;20224;-63
2021/03/17 00:19:24;;;;;;;4.60;1.87;;;;;;;3.17;75.59;101419.16;4971649;28;20651;-63
2021/03/17 00:21:51;;;;;;;4.60;1.43;;;;;;;3.17;75.17;101411.25;4971633;28;20642;-63
2021/03/17 00:24:17;;;;;;;7.37;1.70;;;;;;;3.16;75.87;101423.56;4971372;28;20210;-63
2021/03/17 00:26:43;;;;;;;6.47;1.50;;;;;;;3.15;75.14;101416.56;4971613;28;20323;-66
2021/03/17 00:29:10;;;;;;;4.47;1.50;;;;;;;3.16;75.32;101417.44;4971968;28;20235;-66
2021/03/17 00:31:36;;;;;;;6.37;1.70;;;;;;;3.17;75.14;101421.78;4971009;28;20662;-66
2021/03/17 00:34:02;;;;;;;7.00;1.50;;;;;;;3.16;75.82;101415.66;4971875;28;20224;-65
2021/03/17 00:36:28;;;;;;;4.73;1.30;;;;;;;3.18;76.00;101410.38;4970809;28;20319;-66
2021/03/17 00:38:55;;;;;;;7.87;1.83;;;;;;;3.16;75.90;101415.66;4966859;28;20212;-66
2021/03/17 00:41:21;;;;;;;6.77;1.70;;;;;;;3.16;75.92;101413.03;4969242;28;20211;-64
2021/03/17 00:43:47;;;;;;;4.97;1.30;;;;;;;3.17;75.36;101404.25;4970931;28;20675;-63
2021/03/17 00:46:13;;;;;;;11.60;2.00;;;;;;;3.17;75.66;101412.13;4966917;28;20331;-64
2021/03/17 00:48:39;;;;;;;6.97;1.70;;;;;;;3.17;75.54;101414.75;4970025;28;20204;-64
2021/03/17 00:51:05;;;;;;;9.23;2.00;;;;;;;3.16;76.01;101413.03;4966673;28;20296;-64
2021/03/17 00:53:31;;;;;;;5.00;1.60;;;;;;;3.17;75.94;101413.91;4970823;28;20232;-62
2021/03/17 00:55:58;;;;;;;4.23;1.70;;;;;;;3.16;75.46;101420.94;4969796;28;20253;-65
2021/03/17 00:58:26;;;;;;;5.00;2.00;;;;;;;3.15;76.12;101411.28;4969585;28;20219;-64
2021/03/17 01:00:52;;;;;;;6.00;1.53;;;;;;;3.14;75.72;101410.44;4989631;28;20653;-64
2021/03/17 01:03:18;;;;;;;5.00;1.47;;;;;;;3.16;75.97;101412.16;4983457;28;20291;-65
2021/03/17 01:05:44;;;;;;;6.50;1.20;;;;;;;3.16;75.79;101407.75;4974403;28;20219;-64
2021/03/17 01:08:10;;;;;;;7.80;1.67;;;;;;;3.15;76.12;101413.94;4979795;28;20295;-65
2021/03/17 01:10:40;;;;;;;4.77;1.90;;;;;;;3.14;75.19;101420.09;4977896;28;20200;-65
2021/03/17 01:13:07;;;;;;;7.47;1.50;;;;;;;3.13;75.40;101424.47;4983016;28;20336;-63
2021/03/17 01:15:33;;;;;;;2.90;1.33;;;;;;;3.12;75.59;101419.25;4969594;28;20224;-64
2021/03/17 01:17:59;;;;;;;8.83;1.80;;;;;;;3.12;75.18;101421.88;4976523;28;20239;-63
2021/03/17 01:20:28;;;;;;;5.03;1.50;;;;;;;3.12;76.01;101421.88;4974220;28;20415;-64
2021/03/17 01:22:55;;;;;;;4.00;1.40;;;;;;;3.11;75.01;101420.16;4973733;28;20680;-60
2021/03/17 01:25:27;;;;;;;5.80;1.63;;;;;;;3.11;76.03;101414.88;4976284;28;20204;-64
2021/03/17 01:27:53;;;;;;;3.27;1.07;;;;;;;3.07;75.69;101416.69;4980716;28;20208;-65
2021/03/17 01:30:24;;;;;;;8.03;1.90;;;;;;;3.04;75.80;101421.19;4973872;28;20721;-65
2021/03/17 01:32:50;;;;;;;3.90;1.53;;;;;;;2.99;75.22;101423.03;4973920;28;20216;-65
2021/03/17 01:35:17;;;;;;;5.53;1.37;;;;;;;2.97;75.08;101415.16;4973631;28;20728;-65
2021/03/17 01:37:43;;;;;;;6.23;1.50;;;;;;;2.95;75.54;101418.72;4973931;28;20222;-64
2021/03/17 01:40:11;;;;;;;4.03;1.60;;;;;;;2.94;75.32;101414.34;4973947;28;20212;-64
2021/03/17 01:42:38;;;;;;;4.17;1.57;;;;;;;2.93;75.40;101417.88;4973557;28;20696;-64
2021/03/17 01:45:08;;;;;;;3.93;1.43;;;;;;;2.93;75.44;101418.75;4969491;28;20351;-64
2021/03/17 01:47:34;;;;;;;5.60;1.73;;;;;;;2.92;75.71;101403.84;5008780;22;20223;-66
2021/03/17 01:50:01;;;;;;;4.60;1.40;;;;;;;2.92;75.68;101406.50;5013029;28;20443;-65
2021/03/17 01:52:27;;;;;;;5.40;1.57;;;;;;;2.92;75.63;101413.50;5011307;28;20625;-66
2021/03/17 01:54:53;;;;;;;6.93;1.70;;;;;;;2.90;75.28;101410.91;5012982;28;20225;-65
2021/03/17 01:57:19;;;;;;;6.37;1.60;;;;;;;2.90;75.74;101415.31;5024544;28;20229;-65
2021/03/17 01:59:46;;;;;;;7.30;1.97;;;;;;;2.90;75.28;101412.66;5032181;28;20741;-65
2021/03/17 02:02:13;;;;;;;5.40;1.50;;;;;;;2.89;75.40;101424.09;5032273;28;20224;-66
2021/03/17 02:04:40;;;;;;;4.03;1.33;;;;;;;2.89;76.24;101424.09;5026864;28;20199;-66
2021/03/17 02:07:06;;;;;;;4.87;1.40;;;;;;;2.88;75.40;101412.69;5024480;28;20516;-66
2021/03/17 02:09:32;;;;;;;6.53;1.57;;;;;;;2.86;76.30;101414.53;5027193;28;20210;-65
2021/03/17 02:12:16;;;;;;;3.63;1.93;;;;;;;2.87;75.68;101415.34;5024816;28;20209;-65
2021/03/17 02:14:54;;;;;;;4.03;1.90;;;;;;;2.86;76.60;101413.66;5031658;28;20980;-65
2021/03/17 02:17:27;;;;;;;5.30;1.70;;;;;;;2.83;75.75;101414.56;5032183;28;20230;-65
2021/03/17 02:20:34;;;;;;;5.00;1.37;;;;;;;2.81;75.93;101413.72;5028313;28;20203;-65
2021/03/17 02:23:10;;;;;;;2.83;1.67;;;;;;;2.80;76.47;101414.63;5030901;28;20205;-66
2021/03/17 02:26:17;;;;;;;6.57;1.70;;;;;;;2.78;76.01;101416.41;5032130;28;20275;-66
2021/03/17 02:29:06;;;;;;;5.73;1.40;;;;;;;2.77;76.13;101415.56;5028806;28;20668;-65
2021/03/17 02:32:05;;;;;;;3.83;1.57;;;;;;;2.74;76.02;101418.22;5031111;28;20252;-65
2021/03/17 02:34:37;;;;;;;4.10;1.90;;;;;;;2.72;76.92;101412.13;5031332;28;20226;-65
2021/03/17 02:37:06;;;;;;;3.20;1.83;;;;;;;2.73;76.94;101410.38;5031740;28;20218;-66
2021/03/17 02:39:37;;;;;;;4.03;2.20;;;;;;;2.73;76.69;101410.38;5030731;28;20292;-65
2021/03/17 02:42:11;;;;;;;8.17;2.37;;;;;;;2.74;77.03;101418.22;5031776;28;20667;-65
2021/03/17 02:44:44;;;;;;;9.57;2.53;;;;;;;2.75;76.91;101411.22;5026546;28;20260;-65
2021/03/17 02:47:10;;;;;;;6.43;2.60;;;;;;;2.75;76.58;101411.22;5023767;28;20726;-65
2021/03/17 02:49:41;;;;;;;6.47;2.00;;;;;;;2.77;76.95;101404.16;5025129;28;20783;-65
2021/03/17 02:52:09;;;;;;;6.53;2.10;;;;;;;2.77;77.25;101410.28;5024492;28;20664;-65
2021/03/17 02:54:37;;;;;;;3.87;1.80;;;;;;;2.77;77.09;101409.41;5030788;28;20679;-66
2021/03/17 02:57:09;;;;;;;9.67;2.40;;;;;;;2.77;76.88;101415.56;5030957;28;20222;-65
2021/03/17 02:59:37;;;;;;;9.50;3.00;;;;;;;2.77;76.97;101410.28;5028239;28;20210;-66
2021/03/17 03:02:04;;;;;;;7.73;2.60;;;;;;;2.78;77.45;101408.53;5030695;28;20713;-65
2021/03/17 03:04:32;;;;;;;4.70;2.30;;;;;;;2.78;77.55;101408.53;5024998;28;20206;-66
2021/03/17 03:07:01;;;;;;;5.47;2.77;;;;;;;2.76;77.14;101407.69;5030721;28;20643;-66
2021/03/17 03:09:28;;;;;;;5.67;1.83;;;;;;;2.76;77.74;101397.16;5023643;28;20210;-65
2021/03/17 03:11:56;;;;;;;5.37;1.53;;;;;;;2.74;77.91;101396.31;5018929;28;20660;-65
2021/03/17 03:14:25;;;;;;;4.50;1.97;;;;;;;2.73;77.80;101398.09;5023965;28;20306;-66
2021/03/17 03:16:54;;;;;;;3.53;1.17;;;;;;;2.71;77.79;101393.75;5031168;28;20222;-65
2021/03/17 03:19:23;;;;;;;8.40;1.90;;;;;;;2.67;77.11;101406.13;5021587;28;20298;-65
2021/03/17 03:21:51;;;;;;;5.40;1.73;;;;;;;2.66;77.07;101401.75;5029052;28;20202;-65
2021/03/17 03:24:19;;;;;;;5.30;2.10;;;;;;;2.65;77.09;101405.28;5029902;28;20216;-67
2021/03/17 03:26:48;;;;;;;4.73;1.90;;;;;;;2.66;77.04;101400.88;5022700;28;20267;-65
2021/03/17 03:29:15;;;;;;;5.80;1.80;;;;;;;2.66;76.73;101398.25;5024237;28;20793;-65
2021/03/17 03:31:41;;;;;;;8.17;2.13;;;;;;;2.68;77.13;101404.34;5029732;28;20339;-65
2021/03/17 03:34:07;;;;;;;5.87;2.10;;;;;;;2.70;77.29;101408.66;5030677;28;20202;-65
2021/03/17 03:36:34;;;;;;;11.87;2.57;;;;;;;2.71;77.27;101412.16;5030695;28;20234;-65
2021/03/17 03:39:01;;;;;;;6.90;2.37;;;;;;;2.71;76.81;101409.53;5030853;28;20735;-65
2021/03/17 03:41:28;;;;;;;7.50;2.20;;;;;;;2.71;76.82;101407.75;5027281;28;20206;-66
2021/03/17 03:43:54;;;;;;;4.37;2.00;;;;;;;2.73;77.50;101407.75;5021320;28;20628;-66
2021/03/17 03:46:20;;;;;;;4.73;2.17;;;;;;;2.74;77.74;101404.22;5023942;28;20226;-65
2021/03/17 03:48:47;;;;;;;7.13;2.23;;;;;;;2.73;77.74;101408.59;5030685;28;20210;-66
2021/03/17 03:51:13;;;;;;;5.67;2.23;;;;;;;2.71;77.36;101404.28;5029453;28;20202;-66
2021/03/17 03:53:49;;;;;;;4.77;2.20;;;;;;;2.71;77.27;101413.03;5030552;28;20194;-65
2021/03/17 03:56:19;;;;;;;6.53;2.03;;;;;;;2.70;77.52;101411.28;5019856;28;20313;-65
2021/03/17 03:58:49;;;;;;;4.33;2.43;;;;;;;2.69;77.47;101414.81;5030485;28;20206;-66
2021/03/17 04:01:20;;;;;;;5.70;2.27;;;;;;;2.69;77.29;101417.44;5030279;28;20232;-66
2021/03/17 04:03:52;;;;;;;5.90;2.10;;;;;;;2.68;77.67;101421.00;5029571;28;20271;-66
2021/03/17 04:06:18;;;;;;;6.90;2.40;;;;;;;2.67;77.54;101423.66;5031010;28;20233;-65
2021/03/17 04:08:47;;;;;;;3.50;1.77;;;;;;;2.67;78.10;101428.91;5030042;28;20199;-65
2021/03/17 04:11:15;;;;;;;5.93;1.97;;;;;;;2.65;77.80;101426.31;5030407;28;20577;-66
2021/03/17 04:13:43;;;;;;;4.50;2.47;;;;;;;2.64;77.65;101421.94;5028286;28;20206;-66
2021/03/17 04:16:12;;;;;;;6.20;2.30;;;;;;;2.64;77.71;101427.22;5030660;28;20292;-65
2021/03/17 04:18:42;;;;;;;11.33;2.87;;;;;;;2.64;77.92;101418.44;5023589;28;20786;-65
2021/03/17 04:21:16;;;;;;;7.87;2.77;;;;;;;2.64;78.16;101424.56;5030187;28;20246;-66
2021/03/17 04:23:44;;;;;;;4.83;2.50;;;;;;;2.63;78.33;101425.47;5029107;28;20226;-66
2021/03/17 04:26:12;;;;;;;9.53;2.87;;;;;;;2.63;78.54;101429.88;5030579;28;20228;-65
2021/03/17 04:28:40;;;;;;;6.93;2.93;;;;;;;2.62;78.29;101434.25;5030022;28;20340;-66
2021/03/17 04:31:07;;;;;;;7.77;3.37;;;;;;;2.61;77.90;101440.41;5024210;28;20210;-65
2021/03/17 04:33:37;;;;;;;8.20;3.23;;;;;;;2.61;78.25;101429.03;5029702;28;20206;-65
2021/03/17 04:36:05;;;;;;;9.17;3.53;;;;;;;2.61;78.02;101431.66;5033589;28;20209;-65
2021/03/17 04:38:32;;;;;;;8.40;3.37;;;;;;;2.61;78.07;101432.53;5032597;28;20607;-66
2021/03/17 04:40:59;;;;;;;6.70;3.30;;;;;;;2.61;78.73;101429.88;5032271;28;20202;-65
2021/03/17 04:43:25;;;;;;;7.37;3.33;;;;;;;2.61;78.47;101434.28;5033423;28;20299;-65
2021/03/17 04:45:52;;;;;;;6.87;3.17;;;;;;;2.61;78.73;101435.16;5029967;28;20651;-65
2021/03/17 04:48:19;;;;;;;8.77;3.63;;;;;;;2.59;78.34;101439.56;5033616;28;20689;-65
2021/03/17 04:50:49;;;;;;;7.30;3.07;;;;;;;2.59;78.66;101442.19;5026693;28;20209;-66
2021/03/17 04:53:15;;;;;;;10.27;3.97;;;;;;;2.59;78.95;101442.19;5019435;28;20606;-66
2021/03/17 04:55:42;;;;;;;7.83;3.43;;;;;;;2.59;78.30;101443.97;5016977;28;20689;-66
2021/03/17 04:58:10;;;;;;;10.03;4.00;;;;;;;2.58;78.58;101439.59;5029803;28;20333;-66
2021/03/17 05:00:38;;;;;;;6.27;3.63;;;;;;;2.59;78.84;101446.59;5030133;28;20209;-66
2021/03/17 05:03:06;;;;;;;6.87;3.73;;;;;;;2.57;78.88;101446.59;5019245;28;20203;-65
2021/03/17 05:05:34;;;;;;;7.17;4.33;;;;;;;2.57;78.81;101443.97;5033273;28;20206;-66
2021/03/17 05:08:03;;;;;;;8.00;3.40;;;;;;;2.57;79.19;101457.13;5032731;28;20222;-66
2021/03/17 05:10:30;;;;;;;8.60;3.67;;;;;;;2.56;78.47;101452.75;5033120;28;20212;-66
2021/03/17 05:12:56;;;;;;;8.87;4.13;;;;;;;2.55;78.63;101451.03;5033088;28;20286;-67
2021/03/17 05:15:24;;;;;;;7.70;3.53;;;;;;;2.57;79.18;101461.53;5030076;28;20232;-66
2021/03/17 05:17:51;;;;;;;6.77;3.83;;;;;;;2.56;79.34;101459.78;5019314;28;20218;-66
2021/03/17 05:20:20;;;;;;;9.80;3.70;;;;;;;2.56;79.51;101452.75;5030087;28;20694;-66
2021/03/17 05:22:48;;;;;;;10.90;4.10;;;;;;;2.55;78.89;101456.28;5022375;28;20202;-66
2021/03/17 05:25:17;;;;;;;9.43;3.83;;;;;;;2.55;79.01;101456.28;5019056;28;20709;-66
2021/03/17 05:27:47;;;;;;;9.27;4.13;;;;;;;2.55;78.88;101458.03;5023652;28;20222;-66
2021/03/17 05:30:15;;;;;;;9.03;3.87;;;;;;;2.55;79.09;101464.16;5018437;28;20256;-65
2021/03/17 05:32:42;;;;;;;9.47;3.80;;;;;;;2.54;79.55;101454.53;5032784;28;20228;-66
2021/03/17 05:35:11;;;;;;;7.57;4.10;;;;;;;2.55;79.31;101458.03;5028117;28;20845;-66
2021/03/17 05:37:39;;;;;;;7.63;3.87;;;;;;;2.53;79.53;101444.91;5022935;28;20742;-65
2021/03/17 05:40:08;;;;;;;10.47;4.60;;;;;;;2.52;79.00;101458.97;5019024;28;20310;-65
2021/03/17 05:42:37;;;;;;;7.20;4.03;;;;;;;2.52;79.23;101450.19;5018421;28;20235;-65
2021/03/17 05:45:05;;;;;;;10.37;4.27;;;;;;;2.52;78.86;101463.34;5015222;28;20223;-68
2021/03/17 05:47:31;;;;;;;11.37;4.70;;;;;;;2.53;79.12;101462.47;5016668;28;20321;-64
2021/03/17 05:49:57;;;;;;;8.00;4.60;;;;;;;2.52;79.08;101466.84;5017341;28;20207;-64
2021/03/17 05:52:24;;;;;;;8.50;3.80;;;;;;;2.52;79.24;101460.72;5015119;28;20285;-64
2021/03/17 05:54:50;;;;;;;7.37;3.80;;;;;;;2.50;79.11;101463.41;5019926;28;20202;-65
2021/03/17 05:57:16;;;;;;;6.63;4.20;;;;;;;2.51;79.00;101472.16;5023377;28;20606;-65
2021/03/17 05:59:43;;;;;;;4.90;3.53;;;;;;;2.51;79.20;101466.91;5020622;28;20236;-64
2021/03/17 06:02:13;;;;;;;7.00;3.50;;;;;;;2.50;79.54;101463.41;5023270;28;20747;-67
2021/03/17 06:04:39;;;;;;;7.80;3.60;;;;;;;2.50;79.71;101467.78;5022211;28;20223;-67
2021/03/17 06:07:14;;;;;;;6.37;3.20;;;;;;;2.49;79.79;101471.31;5024207;28;20222;-67
2021/03/17 06:09:44;;;;;;;8.40;3.37;;;;;;;2.49;79.35;101477.44;5025814;28;20214;-68
2021/03/17 06:12:11;;;;;;;7.60;3.70;;;;;;;2.50;79.25;101487.06;5025859;28;20207;-67
2021/03/17 06:14:38;;;;;;;6.03;3.83;;;;;;;2.50;79.78;101478.31;5022023;28;20211;-68
2021/03/17 06:17:12;;;;;;;6.67;2.67;;;;;;;2.50;79.30;101484.44;5020449;28;20317;-68
2021/03/17 06:19:42;;;;;;;5.83;3.50;;;;;;;2.50;79.28;101476.56;5031978;28;20578;-68
2021/03/17 06:22:09;;;;;;;6.73;2.80;;;;;;;2.51;79.85;101478.25;5025533;28;20214;-67
2021/03/17 06:24:36;;;;;;;7.77;4.20;;;;;;;2.53;79.08;101483.50;5026242;28;20858;-67
2021/03/17 06:27:03;;;;;;;4.53;3.00;;;;;;;2.54;79.98;101491.34;5026622;28;20468;-71
2021/03/17 06:29:29;;;;;;;6.20;2.73;;;;;;;2.57;79.08;101490.44;5031668;28;20212;-71
2021/03/17 06:31:55;;;;;;;4.83;3.20;;;;;;;2.59;79.10;101496.53;5027583;28;20207;-68
2021/03/17 06:34:22;;;;;;;4.10;2.63;;;;;;;2.60;79.89;101487.75;5028264;28;20202;-69
2021/03/17 06:36:50;;;;;;;6.37;3.00;;;;;;;2.64;79.29;101497.34;5025694;28;20252;-71
2021/03/17 06:39:16;;;;;;;7.90;2.50;;;;;;;2.64;79.64;101492.97;5029667;28;20245;-70
2021/03/17 06:41:45;;;;;;;7.17;2.67;;;;;;;2.64;79.68;101495.59;5030447;28;20210;-69
2021/03/17 06:44:11;;;;;;;5.77;2.33;;;;;;;2.67;79.86;101492.03;5025870;28;20313;-70
2021/03/17 06:46:37;;;;;;;5.73;2.13;;;;;;;2.67;79.44;101492.91;5026881;28;20711;-71
2021/03/17 06:49:04;;;;;;;3.93;1.87;;;;;;;2.69;79.03;101492.84;5028638;28;20252;-71
2021/03/17 06:51:33;;;;;;;5.70;2.30;;;;;;;2.68;79.19;101499.91;5019396;28;20288;-69
2021/03/17 06:54:00;;;;;;;5.50;2.27;;;;;;;2.69;79.49;101496.34;5024129;28;20199;-70
2021/03/17 06:56:28;;;;;;;4.70;2.23;;;;;;;2.70;78.95;101492.81;5020788;28;20312;-70
2021/03/17 06:58:55;;;;;;;6.97;2.70;;;;;;;2.72;79.51;101495.44;5018425;28;20289;-71
2021/03/17 07:01:29;;;;;;;3.87;2.10;;;;;;;2.73;79.10;101497.16;5014778;28;20202;-69
2021/03/17 07:03:58;;;;;;;6.10;2.63;;;;;;;2.73;78.79;101494.53;5016477;28;20706;-70
2021/03/17 07:06:25;;;;;;;8.00;2.17;;;;;;;2.74;78.97;101491.00;5013758;28;20310;-68
2021/03/17 07:08:52;;;;;;;4.57;1.73;;;;;;;2.74;79.39;101493.66;5020096;28;20215;-71
2021/03/17 07:11:23;;;;;;;7.40;2.20;;;;;;;2.75;78.63;101504.16;5015220;28;20206;-67
2021/03/17 07:13:57;;;;;;;4.80;2.03;;;;;;;2.76;79.21;101505.00;5015568;28;20214;-70
2021/03/17 07:16:36;;;;;;;4.97;1.87;;;;;;;2.77;78.54;101501.50;5018404;28;20229;-71
2021/03/17 07:19:03;;;;;;;5.23;2.50;;;;;;;2.78;79.32;101501.47;5016431;28;20210;-70
2021/03/17 07:21:31;;;;;;;3.40;2.17;;;;;;;2.82;78.88;101504.03;5016708;28;20301;-69
2021/03/17 07:23:58;;;;;;;7.07;2.30;;;;;;;2.85;78.37;101498.75;5019224;28;20704;-69
2021/03/17 07:26:25;;;;;;;6.73;2.13;;;;;;;2.89;78.57;101503.03;5022112;28;20234;-70
2021/03/17 07:29:00;;;;;;;5.07;2.43;;;;;;;2.89;79.05;101501.25;5027644;28;20268;-69
2021/03/17 07:31:28;;;;;;;6.57;2.90;;;;;;;2.91;78.69;101507.38;5029233;28;20296;-68
2021/03/17 07:33:55;;;;;;;4.30;2.67;;;;;;;2.95;78.98;101513.44;5027171;28;20198;-69
2021/03/17 07:36:33;;;;;;;8.20;3.20;;;;;;;2.96;79.04;101505.53;5029592;28;20236;-70
2021/03/17 07:39:06;;;;;;;6.53;3.40;;;;;;;2.99;78.83;101507.25;5026030;28;20212;-68
2021/03/17 07:41:34;;;;;;;8.70;3.63;;;;;;;3.02;78.91;101509.81;5029199;28;20293;-67
2021/03/17 07:44:04;;;;;;;4.73;2.30;;;;;;;3.04;78.33;101508.91;5029338;28;20249;-70
2021/03/17 07:46:30;;;;;;;3.33;2.27;;;;;;;3.08;78.42;101509.69;5031384;28;20280;-71
2021/03/17 07:48:58;;;;;;;5.37;2.50;;;;;;;3.12;77.77;101506.09;5029799;28;20289;-70
2021/03/17 07:51:26;;;;;;;6.37;3.53;;;;;;;3.17;78.49;101513.91;5030134;28;20211;-71
2021/03/17 07:53:55;;;;;;;7.10;2.90;;;;;;;3.19;77.99;101515.63;5029855;28;20959;-70
2021/03/17 07:56:23;;;;;;;5.33;2.77;;;;;;;3.23;77.83;101511.16;5026073;28;20730;-71
2021/03/17 07:58:50;;;;;;;5.37;2.47;;;;;;;3.28;78.26;101514.56;5022516;28;20206;-71
2021/03/17 08:01:17;;;;;;;4.87;2.10;;;;;;;3.32;77.25;101510.97;5028589;28;20297;-70
2021/03/17 08:03:46;;;;;;;4.30;2.27;;;;;;;3.38;77.66;101519.63;5029598;28;20292;-71
2021/03/17 08:06:14;;;;;;;11.73;2.43;;;;;;;3.42;77.28;101523.06;5022087;28;20226;-69
2021/03/17 08:08:42;;;;;;;6.73;2.80;;;;;;;3.45;77.30;101525.63;5025578;28;20203;-71
2021/03/17 08:11:10;;;;;;;6.93;2.10;;;;;;;3.49;77.27;101522.03;5030267;28;20202;-71
2021/03/17 08:13:38;;;;;;;6.27;2.87;;;;;;;3.54;76.75;101519.31;5029562;28;20230;-70
2021/03/17 08:16:05;;;;;;;5.03;2.93;;;;;;;3.58;76.32;101523.63;5030189;28;20649;-71
2021/03/17 08:18:42;;;;;;;7.57;2.43;;;;;;;3.64;76.30;101521.72;5023424;28;20671;-70
2021/03/17 08:21:08;;;;;;;4.70;2.30;;;;;;;3.68;75.76;101523.41;5028674;28;20671;-71
2021/03/17 08:23:39;;;;;;;5.47;2.53;;;;;;;3.73;76.32;101521.53;5029140;28;20212;-71
2021/03/17 08:26:05;;;;;;;8.47;2.50;;;;;;;3.81;75.88;101522.22;5024368;28;20212;-71
2021/03/17 08:28:31;;;;;;;11.17;2.50;;;;;;;3.87;75.18;101523.88;5024581;28;20268;-69
2021/03/17 08:30:59;;;;;;;8.97;3.00;;;;;;;3.92;75.28;101522.00;5028914;28;20225;-71
2021/03/17 08:33:33;;;;;;;8.87;2.30;;;;;;;3.98;74.59;101526.25;5027577;28;20683;-70
2021/03/17 08:36:02;;;;;;;7.30;3.03;;;;;;;4.04;74.82;101526.13;5029452;28;20233;-69
2021/03/17 08:38:50;;;;;;;4.83;2.20;;;;;;;4.11;74.39;101523.34;5029241;28;20203;-69
2021/03/17 08:41:17;;;;;;;8.40;2.77;;;;;;;4.21;73.78;101526.63;5028660;28;20683;-68
2021/03/17 08:43:47;;;;;;;5.53;2.27;;;;;;;4.36;73.50;101528.03;5027976;28;20236;-69
2021/03/17 08:46:17;;;;;;;5.77;2.40;;;;;;;4.50;72.99;101521.50;5025421;28;20735;-70
2021/03/17 08:48:57;;;;;;;6.13;2.30;;;;;;;4.67;72.75;101536.03;5022108;28;20264;-69
2021/03/17 08:51:59;;;;;;;5.27;2.67;;;;;;;4.82;72.04;101535.69;5018237;28;20207;-68
2021/03/17 08:54:55;;;;;;;6.13;3.00;;;;;;;4.93;71.70;101535.41;5019599;28;20233;-67
2021/03/17 08:57:21;;;;;;;4.00;2.67;;;;;;;5.03;71.72;101536.88;5017134;28;20664;-70
2021/03/17 08:59:49;;;;;;;6.20;2.67;;;;;;;5.18;71.61;101544.41;5016999;28;20201;-68
2021/03/17 09:02:21;;;;;;;5.97;2.43;;;;;;;5.33;71.08;101541.34;5015881;28;20211;-67
2021/03/17 09:04:48;;;;;;;5.20;2.40;;;;;;;5.44;70.10;101552.47;5015239;28;20305;-68
2021/03/17 09:07:15;;;;;;;7.13;2.80;;;;;;;5.44;69.61;101548.97;5012589;28;20266;-67
2021/03/17 09:09:46;;;;;;;3.93;2.60;;;;;;;5.42;68.85;101554.28;5012269;28;20214;-67
2021/03/17 09:12:12;;;;;;;4.90;1.77;;;;;;;5.36;68.19;101557.13;5016954;28;20199;-67
2021/03/17 09:14:39;;;;;;;6.70;1.70;;;;;;;5.30;67.26;101556.41;5016517;28;20199;-67
2021/03/17 09:17:25;;;;;;;4.23;1.40;;;;;;;5.22;66.37;101557.47;5016617;28;20258;-69
2021/03/17 09:19:58;;;;;;;4.57;1.57;;;;;;;5.16;66.24;101556.78;5017879;28;20206;-67
2021/03/17 09:22:36;;;;;;;2.77;1.40;;;;;;;5.15;65.46;101555.94;5015872;28;20240;-66
2021/03/17 09:25:23;;;;;;;4.60;1.50;;;;;;;5.15;65.04;101562.97;5013801;28;20771;-67
2021/03/17 09:27:52;;;;;;;5.80;1.70;;;;;;;5.10;64.78;101554.31;5023449;28;20239;-68
2021/03/17 09:30:21;;;;;;;6.60;1.80;;;;;;;5.06;64.13;101555.28;5022917;28;20233;-68
2021/03/17 09:32:49;;;;;;;6.30;2.20;;;;;;;5.03;63.81;101558.88;5014993;28;20208;-70
2021/03/17 09:35:17;;;;;;;5.60;1.57;;;;;;;5.05;63.53;101561.47;5016755;28;20238;-70
2021/03/17 09:37:44;;;;;;;4.80;1.80;;;;;;;5.07;63.86;101557.88;5019490;28;20317;-69
2021/03/17 09:40:15;;;;;;;4.40;2.03;;;;;;;5.09;63.14;101563.13;5017885;28;20206;-68
2021/03/17 09:42:41;;;;;;;6.47;1.60;;;;;;;5.07;63.38;101562.31;5017859;28;20218;-68
2021/03/17 09:45:09;;;;;;;5.13;1.97;;;;;;;5.09;63.35;101563.13;5017470;28;20231;-68
2021/03/17 09:47:35;;;;;;;2.17;1.03;;;;;;;5.10;63.03;101560.44;5024172;28;20240;-68
2021/03/17 09:50:03;;;;;;;5.27;1.73;;;;;;;5.11;62.75;101561.31;5021579;28;20687;-68
2021/03/17 09:52:29;;;;;;;3.33;1.23;;;;;;;5.10;62.73;101565.72;5027197;28;20206;-69
2021/03/17 09:54:55;;;;;;;3.27;1.50;;;;;;;5.11;62.27;101566.59;5029651;28;20799;-68
2021/03/17 09:57:24;;;;;;;2.23;1.23;;;;;;;5.10;61.88;101572.78;5028598;28;20731;-68
2021/03/17 09:59:50;;;;;;;4.17;1.07;;;;;;;5.10;61.46;101571.00;5028774;28;20210;-69
2021/03/17 10:02:21;;;;;;;2.93;1.20;;;;;;;5.12;61.39;101566.56;5031490;28;21307;-68
2021/03/17 10:04:49;;;;;;;3.03;1.10;;;;;;;5.11;60.77;101567.47;5031516;28;20222;-68
2021/03/17 10:07:18;;;;;;;5.60;1.47;;;;;;;5.13;60.29;101570.06;5031704;28;20850;-69
2021/03/17 10:09:45;;;;;;;1.97;1.10;;;;;;;5.15;59.70;101570.91;5025673;28;20202;-68
2021/03/17 10:12:14;;;;;;;4.37;1.33;;;;;;;5.17;59.54;101577.00;5028653;28;20575;-67
2021/03/17 10:14:45;;;;;;;4.80;1.50;;;;;;;5.20;59.39;101574.25;5028274;28;20563;-69
2021/03/17 10:17:12;;;;;;;4.40;1.60;;;;;;;5.21;58.66;101576.00;5028392;28;20227;-68
2021/03/17 10:19:39;;;;;;;5.20;1.30;;;;;;;5.22;58.56;101578.59;5031276;28;20218;-68
2021/03/17 10:22:06;;;;;;;2.23;1.00;;;;;;;5.24;58.15;101570.63;5032512;28;20202;-68
2021/03/17 10:24:38;;;;;;;3.30;0.90;;;;;;;5.28;57.77;101572.31;5024765;28;20595;-69
2021/03/17 10:27:06;;;;;;;4.33;1.00;;;;;;;5.33;56.94;101577.47;5024039;28;20257;-68
2021/03/17 10:29:32;;;;;;;2.13;1.00;;;;;;;5.37;56.78;101568.56;5017525;28;20258;-69
2021/03/17 10:31:59;;;;;;;3.73;1.20;;;;;;;5.43;56.29;101569.25;5015664;28;20214;-68
2021/03/17 10:34:27;;;;;;;7.13;1.20;;;;;;;5.51;56.27;101564.63;5016905;28;20329;-68
2021/03/17 10:36:53;;;;;;;4.93;1.20;;;;;;;5.64;55.46;101575.72;5015963;28;20617;-68
2021/03/17 10:39:25;;;;;;;3.37;1.20;;;;;;;5.76;55.34;101572.69;5015467;28;20203;-70
2021/03/17 10:41:52;;;;;;;2.43;1.33;;;;;;;5.86;55.00;101568.03;5015085;28;20213;-68
2021/03/17 10:44:21;;;;;;;4.60;0.80;;;;;;;5.97;54.52;101570.38;5014970;28;20318;-68
2021/03/17 10:47:05;;;;;;;4.87;1.00;;;;;;;6.08;54.24;101573.59;5021445;28;20322;-67
2021/03/17 10:49:34;;;;;;;2.93;1.00;;;;;;;6.18;54.23;101567.97;5022592;28;20207;-67
2021/03/17 10:52:01;;;;;;;4.47;1.20;;;;;;;6.29;53.34;101572.91;5017849;28;20757;-67
2021/03/17 10:54:32;;;;;;;1.77;0.97;;;;;;;6.38;53.21;101562.06;5014872;28;20198;-68
2021/03/17 10:57:01;;;;;;;2.63;0.90;;;;;;;6.48;52.93;101562.63;5015832;28;20218;-67
2021/03/17 10:59:28;;;;;;;6.33;1.20;;;;;;;6.59;52.85;101565.81;5027207;28;20205;-69
2021/03/17 11:02:23;;;;;;;2.30;1.10;;;;;;;6.69;52.65;101567.22;5022009;28;20584;-68
2021/03/17 11:05:15;;;;;;;6.90;1.60;;;;;;;6.79;52.67;101568.69;4985886;28;20717;-68
2021/03/17 11:07:56;;;;;;;2.27;1.20;;;;;;;6.92;52.66;101562.03;5029662;28;20317;-67
2021/03/17 11:10:31;;;;;;;4.43;1.37;;;;;;;7.04;51.84;101560.75;5016779;28;20203;-68
2021/03/17 11:12:59;;;;;;;3.00;1.00;;;;;;;7.11;51.66;101556.13;5016854;28;20252;-68
2021/03/17 11:15:27;;;;;;;4.87;1.23;;;;;;;7.19;51.59;101556.69;5020592;28;20198;-67
2021/03/17 11:17:53;;;;;;;5.13;1.20;;;;;;;7.29;51.62;101560.78;5020354;28;20339;-68
2021/03/17 11:20:19;;;;;;;4.53;1.40;;;;;;;7.36;51.13;101556.09;5014853;28;20199;-67
2021/03/17 11:22:45;;;;;;;2.20;1.17;;;;;;;7.35;50.55;101554.38;5016036;28;20584;-68
2021/03/17 11:25:13;;;;;;;4.10;1.37;;;;;;;7.39;50.93;101553.34;5014106;28;20322;-68
2021/03/17 11:27:39;;;;;;;2.70;1.33;;;;;;;7.45;50.13;101564.59;5015173;28;20502;-67
2021/03/17 11:30:08;;;;;;;5.50;1.40;;;;;;;7.51;50.77;101556.44;5012709;28;20707;-67
2021/03/17 11:32:34;;;;;;;3.47;1.43;;;;;;;7.58;49.87;101557.06;5016396;28;20299;-68
2021/03/17 11:35:00;;;;;;;5.00;1.57;;;;;;;7.59;49.99;101557.00;5016361;28;20202;-68
2021/03/17 11:37:26;;;;;;;3.13;1.90;;;;;;;7.64;50.15;101556.84;5015184;28;20230;-68
2021/03/17 11:39:52;;;;;;;4.40;1.63;;;;;;;7.72;50.14;101549.47;5022579;28;20209;-68
2021/03/17 11:42:18;;;;;;;8.47;1.57;;;;;;;7.80;49.31;101549.19;5018203;28;20199;-67
2021/03/17 11:44:44;;;;;;;2.90;1.13;;;;;;;7.88;49.43;101553.28;5027202;28;20704;-68